sensor_id;sensor_type;location;lat;lon;timestamp;pressure;altitude;pressure_sealevel;temperature;humidity
61906;BME280;47863;55.766;37.672;2023-12-22T00:01:40;97584.44;;;0.55;89.07
61906;BME280;47863;55.766;37.672;2023-12-22T00:04:05;97605.97;;;0.68;89.21
61906;BME280;47863;55.766;37.672;2023-12-22T00:06:32;97604.16;;;0.69;89.68
61906;BME280;47863;55.766;37.672;2023-12-22T00:08:58;97598.38;;;0.65;89.31
61906;BME280;47863;55.766;37.672;2023-12-22T00:11:23;97623.00;;;0.74;89.72
61906;BME280;47863;55.766;37.672;2023-12-22T00:13:49;97620.81;;;0.69;89.33
61906;BME280;47863;55.766;37.672;2023-12-22T00:16:15;97625.56;;;0.66;89.72
61906;BME280;47863;55.766;37.672;2023-12-22T00:18:40;97609.84;;;0.56;89.49
61906;BME280;47863;55.766;37.672;2023-12-22T00:21:12;97616.59;;;0.58;89.63
61906;BME280;47863;55.766;37.672;2023-12-22T00:23:37;97591.69;;;0.35;89.79
61906;BME280;47863;55.766;37.672;2023-12-22T00:26:04;97607.13;;;0.48;89.93
61906;BME280;47863;55.766;37.672;2023-12-22T00:28:30;97576.88;;;0.16;89.98
61906;BME280;47863;55.766;37.672;2023-12-22T00:30:57;97591.16;;;0.31;90.26
61906;BME280;47863;55.766;37.672;2023-12-22T00:33:24;97609.00;;;0.37;90.23
61906;BME280;47863;55.766;37.672;2023-12-22T00:35:49;97610.25;;;0.33;90.22
61906;BME280;47863;55.766;37.672;2023-12-22T00:38:15;97584.59;;;0.17;90.23
61906;BME280;47863;55.766;37.672;2023-12-22T00:40:40;97594.78;;;0.30;90.51
61906;BME280;47863;55.766;37.672;2023-12-22T00:43:06;97599.50;;;0.27;90.46
61906;BME280;47863;55.766;37.672;2023-12-22T00:45:31;97597.16;;;0.24;90.58
61906;BME280;47863;55.766;37.672;2023-12-22T00:47:57;97541.66;;;-0.19;90.09
61906;BME280;47863;55.766;37.672;2023-12-22T00:50:23;97532.94;;;-0.19;90.18
61906;BME280;47863;55.766;37.672;2023-12-22T00:52:48;97541.34;;;-0.16;90.51
61906;BME280;47863;55.766;37.672;2023-12-22T00:55:14;97601.09;;;0.19;90.63
61906;BME280;47863;55.766;37.672;2023-12-22T00:57:40;97596.00;;;0.18;90.35
61906;BME280;47863;55.766;37.672;2023-12-22T01:00:06;97603.22;;;0.16;90.49
61906;BME280;47863;55.766;37.672;2023-12-22T01:02:34;97557.38;;;-0.09;90.39
61906;BME280;47863;55.766;37.672;2023-12-22T01:04:59;97575.19;;;-0.03;90.54
61906;BME280;47863;55.766;37.672;2023-12-22T01:07:25;97592.50;;;0.17;90.51
61906;BME280;47863;55.766;37.672;2023-12-22T01:09:51;97579.19;;;0.01;90.21
61906;BME280;47863;55.766;37.672;2023-12-22T01:12:16;97572.16;;;-0.08;90.25
61906;BME280;47863;55.766;37.672;2023-12-22T01:14:42;97595.66;;;0.03;90.04
61906;BME280;47863;55.766;37.672;2023-12-22T01:17:10;97586.19;;;-0.08;90.56
61906;BME280;47863;55.766;37.672;2023-12-22T01:19:36;97577.66;;;-0.19;90.10
61906;BME280;47863;55.766;37.672;2023-12-22T01:22:02;97583.59;;;-0.17;90.50
61906;BME280;47863;55.766;37.672;2023-12-22T01:24:28;97609.94;;;0.01;90.23
61906;BME280;47863;55.766;37.672;2023-12-22T01:26:53;97587.28;;;-0.10;90.21
61906;BME280;47863;55.766;37.672;2023-12-22T01:29:19;97593.16;;;0.02;90.30
61906;BME280;47863;55.766;37.672;2023-12-22T01:31:44;97596.88;;;0.09;90.31
61906;BME280;47863;55.766;37.672;2023-12-22T01:34:10;97608.22;;;0.09;90.06
61906;BME280;47863;55.766;37.672;2023-12-22T01:36:36;97598.09;;;0.14;90.56
61906;BME280;47863;55.766;37.672;2023-12-22T01:39:02;97590.19;;;0.14;90.14
61906;BME280;47863;55.766;37.672;2023-12-22T01:41:28;97525.84;;;-0.19;90.53
61906;BME280;47863;55.766;37.672;2023-12-22T01:43:53;97551.44;;;0.07;90.21
61906;BME280;47863;55.766;37.672;2023-12-22T01:46:20;97590.72;;;0.36;89.93
61906;BME280;47863;55.766;37.672;2023-12-22T01:48:46;97569.28;;;0.31;90.18
61906;BME280;47863;55.766;37.672;2023-12-22T01:51:12;97556.72;;;0.25;89.97
61906;BME280;47863;55.766;37.672;2023-12-22T01:53:37;97570.47;;;0.36;90.00
61906;BME280;47863;55.766;37.672;2023-12-22T01:56:04;97572.56;;;0.33;90.15
61906;BME280;47863;55.766;37.672;2023-12-22T01:58:32;97560.69;;;0.29;89.83
61906;BME280;47863;55.766;37.672;2023-12-22T02:01:01;97579.59;;;0.42;90.00
61906;BME280;47863;55.766;37.672;2023-12-22T02:03:27;97561.84;;;0.26;89.63
61906;BME280;47863;55.766;37.672;2023-12-22T02:05:53;97581.69;;;0.38;89.79
61906;BME280;47863;55.766;37.672;2023-12-22T02:08:21;97567.78;;;0.28;89.75
61906;BME280;47863;55.766;37.672;2023-12-22T02:10:48;97548.06;;;0.14;89.80
61906;BME280;47863;55.766;37.672;2023-12-22T02:13:14;97571.63;;;0.34;90.09
61906;BME280;47863;55.766;37.672;2023-12-22T02:15:40;97565.00;;;0.30;89.76
61906;BME280;47863;55.766;37.672;2023-12-22T02:18:10;97572.72;;;0.31;89.65
61906;BME280;47863;55.766;37.672;2023-12-22T02:20:57;97566.50;;;0.32;89.71
61906;BME280;47863;55.766;37.672;2023-12-22T02:23:24;97549.34;;;0.28;89.65
61906;BME280;47863;55.766;37.672;2023-12-22T02:26:01;97540.84;;;0.34;89.38
61906;BME280;47863;55.766;37.672;2023-12-22T02:28:27;97557.84;;;0.40;89.30
61906;BME280;47863;55.766;37.672;2023-12-22T02:31:03;97563.03;;;0.50;89.63
61906;BME280;47863;55.766;37.672;2023-12-22T02:33:34;97532.78;;;0.36;89.29
61906;BME280;47863;55.766;37.672;2023-12-22T02:36:03;97563.91;;;0.58;89.57
61906;BME280;47863;55.766;37.672;2023-12-22T02:38:31;97542.09;;;0.48;88.67
61906;BME280;47863;55.766;37.672;2023-12-22T02:40:58;97556.69;;;0.61;88.48
61906;BME280;47863;55.766;37.672;2023-12-22T02:43:24;97557.06;;;0.66;88.95
61906;BME280;47863;55.766;37.672;2023-12-22T02:45:50;97544.06;;;0.46;88.57
61906;BME280;47863;55.766;37.672;2023-12-22T02:48:16;97529.22;;;0.45;88.52
61906;BME280;47863;55.766;37.672;2023-12-22T02:50:42;97558.53;;;0.68;88.74
61906;BME280;47863;55.766;37.672;2023-12-22T02:53:07;97534.25;;;0.56;88.60
61906;BME280;47863;55.766;37.672;2023-12-22T02:55:33;97541.78;;;0.69;88.36
61906;BME280;47863;55.766;37.672;2023-12-22T02:57:59;97540.94;;;0.69;88.41
61906;BME280;47863;55.766;37.672;2023-12-22T03:00:24;97534.00;;;0.68;88.62
61906;BME280;47863;55.766;37.672;2023-12-22T03:02:50;97545.09;;;0.71;88.30
61906;BME280;47863;55.766;37.672;2023-12-22T03:05:15;97549.69;;;0.69;88.66
61906;BME280;47863;55.766;37.672;2023-12-22T03:07:41;97544.03;;;0.64;88.25
61906;BME280;47863;55.766;37.672;2023-12-22T03:10:07;97542.00;;;0.58;88.16
61906;BME280;47863;55.766;37.672;2023-12-22T03:12:32;97497.56;;;0.37;88.58
61906;BME280;47863;55.766;37.672;2023-12-22T03:14:58;97512.06;;;0.41;88.45
61906;BME280;47863;55.766;37.672;2023-12-22T03:17:23;97539.06;;;0.61;88.45
61906;BME280;47863;55.766;37.672;2023-12-22T03:19:49;97482.00;;;0.26;88.67
61906;BME280;47863;55.766;37.672;2023-12-22T03:22:14;97503.88;;;0.44;88.66
61906;BME280;47863;55.766;37.672;2023-12-22T03:24:40;97526.25;;;0.66;88.60
61906;BME280;47863;55.766;37.672;2023-12-22T03:27:06;97515.81;;;0.56;88.60
61906;BME280;47863;55.766;37.672;2023-12-22T03:29:32;97508.44;;;0.60;88.34
61906;BME280;47863;55.766;37.672;2023-12-22T03:31:57;97543.56;;;0.69;88.23
61906;BME280;47863;55.766;37.672;2023-12-22T03:34:23;97511.78;;;0.44;88.02
61906;BME280;47863;55.766;37.672;2023-12-22T03:36:48;97531.63;;;0.56;88.50
61906;BME280;47863;55.766;37.672;2023-12-22T03:39:15;97542.22;;;0.65;88.28
61906;BME280;47863;55.766;37.672;2023-12-22T03:41:41;97534.41;;;0.55;88.41
61906;BME280;47863;55.766;37.672;2023-12-22T03:44:06;97552.09;;;0.63;88.47
61906;BME280;47863;55.766;37.672;2023-12-22T03:46:32;97541.09;;;0.67;88.35
61906;BME280;47863;55.766;37.672;2023-12-22T03:48:58;97504.03;;;0.43;88.35
61906;BME280;47863;55.766;37.672;2023-12-22T03:51:23;97513.28;;;0.47;88.44
61906;BME280;47863;55.766;37.672;2023-12-22T03:53:49;97468.53;;;0.29;88.28
61906;BME280;47863;55.766;37.672;2023-12-22T03:56:14;97525.44;;;0.66;88.79
61906;BME280;47863;55.766;37.672;2023-12-22T03:58:40;97506.72;;;0.51;88.32
61906;BME280;47863;55.766;37.672;2023-12-22T04:01:06;97511.38;;;0.57;87.96
61906;BME280;47863;55.766;37.672;2023-12-22T04:03:34;97505.59;;;0.53;87.55
61906;BME280;47863;55.766;37.672;2023-12-22T04:06:03;97526.56;;;0.63;87.35
61906;BME280;47863;55.766;37.672;2023-12-22T04:08:29;97493.69;;;0.49;87.18
61906;BME280;47863;55.766;37.672;2023-12-22T04:10:55;97501.97;;;0.54;87.56
61906;BME280;47863;55.766;37.672;2023-12-22T04:13:20;97520.31;;;0.64;87.63
61906;BME280;47863;55.766;37.672;2023-12-22T04:15:46;97475.19;;;0.41;86.62
61906;BME280;47863;55.766;37.672;2023-12-22T04:18:11;97502.84;;;0.63;86.57
61906;BME280;47863;55.766;37.672;2023-12-22T04:20:37;97503.63;;;0.55;86.65
61906;BME280;47863;55.766;37.672;2023-12-22T04:23:03;97503.63;;;0.55;86.41
61906;BME280;47863;55.766;37.672;2023-12-22T04:25:29;97480.13;;;0.36;86.70
61906;BME280;47863;55.766;37.672;2023-12-22T04:27:54;97502.72;;;0.47;87.27
61906;BME280;47863;55.766;37.672;2023-12-22T04:30:20;97477.47;;;0.36;87.36
61906;BME280;47863;55.766;37.672;2023-12-22T04:32:45;97478.97;;;0.38;87.09
61906;BME280;47863;55.766;37.672;2023-12-22T04:35:11;97487.25;;;0.44;87.26
61906;BME280;47863;55.766;37.672;2023-12-22T04:37:37;97490.19;;;0.41;87.31
61906;BME280;47863;55.766;37.672;2023-12-22T04:40:02;97487.41;;;0.42;87.12
61906;BME280;47863;55.766;37.672;2023-12-22T04:42:32;97484.09;;;0.40;86.83
61906;BME280;47863;55.766;37.672;2023-12-22T04:44:57;97471.53;;;0.34;87.18
61906;BME280;47863;55.766;37.672;2023-12-22T04:47:23;97470.69;;;0.33;87.06
61906;BME280;47863;55.766;37.672;2023-12-22T04:49:48;97452.22;;;0.25;86.79
61906;BME280;47863;55.766;37.672;2023-12-22T04:52:14;97447.72;;;0.17;87.13
61906;BME280;47863;55.766;37.672;2023-12-22T04:54:39;97454.63;;;0.18;87.37
61906;BME280;47863;55.766;37.672;2023-12-22T04:57:05;97439.22;;;0.06;87.32
61906;BME280;47863;55.766;37.672;2023-12-22T04:59:31;97480.34;;;0.25;87.49
61906;BME280;47863;55.766;37.672;2023-12-22T05:01:56;97445.25;;;0.16;86.96
61906;BME280;47863;55.766;37.672;2023-12-22T05:04:22;97465.03;;;0.20;86.97
61906;BME280;47863;55.766;37.672;2023-12-22T05:06:48;97437.88;;;0.02;87.40
61906;BME280;47863;55.766;37.672;2023-12-22T05:09:15;97428.97;;;-0.06;87.48
61906;BME280;47863;55.766;37.672;2023-12-22T05:11:40;97439.84;;;-0.01;87.07
61906;BME280;47863;55.766;37.672;2023-12-22T05:14:06;97465.16;;;0.18;87.63
61906;BME280;47863;55.766;37.672;2023-12-22T05:16:32;97467.13;;;0.16;87.60
61906;BME280;47863;55.766;37.672;2023-12-22T05:18:58;97469.09;;;0.14;87.74
61906;BME280;47863;55.766;37.672;2023-12-22T05:21:24;97479.28;;;0.17;87.69
61906;BME280;47863;55.766;37.672;2023-12-22T05:23:50;97481.56;;;0.12;87.61
61906;BME280;47863;55.766;37.672;2023-12-22T05:26:21;97437.47;;;-0.12;87.60
61906;BME280;47863;55.766;37.672;2023-12-22T05:28:48;97464.66;;;-0.03;87.97
61906;BME280;47863;55.766;37.672;2023-12-22T05:31:16;97482.00;;;0.08;88.26
61906;BME280;47863;55.766;37.672;2023-12-22T05:33:41;97393.09;;;-0.43;88.13
61906;BME280;47863;55.766;37.672;2023-12-22T05:36:07;97418.81;;;-0.18;88.28
61906;BME280;47863;55.766;37.672;2023-12-22T05:38:40;97471.56;;;0.16;88.24
61906;BME280;47863;55.766;37.672;2023-12-22T05:41:06;97462.63;;;0.09;87.89
61906;BME280;47863;55.766;37.672;2023-12-22T05:43:34;97399.19;;;-0.24;87.65
61906;BME280;47863;55.766;37.672;2023-12-22T05:46:00;97422.84;;;-0.06;87.91
61906;BME280;47863;55.766;37.672;2023-12-22T05:48:26;97442.84;;;0.05;88.17
61906;BME280;47863;55.766;37.672;2023-12-22T05:50:56;97469.16;;;0.23;88.33
61906;BME280;47863;55.766;37.672;2023-12-22T05:53:21;97464.69;;;0.23;88.03
61906;BME280;47863;55.766;37.672;2023-12-22T05:55:47;97464.50;;;0.16;88.15
61906;BME280;47863;55.766;37.672;2023-12-22T05:58:12;97432.94;;;-0.02;87.60
61906;BME280;47863;55.766;37.672;2023-12-22T06:00:38;97477.88;;;0.23;87.79
61906;BME280;47863;55.766;37.672;2023-12-22T06:03:03;97470.97;;;0.22;87.78
61906;BME280;47863;55.766;37.672;2023-12-22T06:05:29;97479.00;;;0.21;87.71
61906;BME280;47863;55.766;37.672;2023-12-22T06:07:55;97477.72;;;0.25;88.00
61906;BME280;47863;55.766;37.672;2023-12-22T06:10:21;97452.09;;;0.09;88.28
61906;BME280;47863;55.766;37.672;2023-12-22T06:12:46;97475.03;;;0.16;88.01
61906;BME280;47863;55.766;37.672;2023-12-22T06:15:12;97486.00;;;0.30;87.07
61906;BME280;47863;55.766;37.672;2023-12-22T06:17:38;97482.47;;;0.21;87.31
61906;BME280;47863;55.766;37.672;2023-12-22T06:20:03;97466.59;;;0.13;87.74
61906;BME280;47863;55.766;37.672;2023-12-22T06:22:29;97459.47;;;0.05;88.21
61906;BME280;47863;55.766;37.672;2023-12-22T06:24:55;97490.34;;;0.21;87.98
61906;BME280;47863;55.766;37.672;2023-12-22T06:27:20;97473.88;;;0.19;87.81
61906;BME280;47863;55.766;37.672;2023-12-22T06:29:46;97487.78;;;0.29;87.36
61906;BME280;47863;55.766;37.672;2023-12-22T06:32:11;97433.06;;;-0.03;87.97
61906;BME280;47863;55.766;37.672;2023-12-22T06:34:37;97483.03;;;0.33;87.81
61906;BME280;47863;55.766;37.672;2023-12-22T06:37:03;97498.38;;;0.37;87.85
61906;BME280;47863;55.766;37.672;2023-12-22T06:39:28;97453.44;;;0.13;87.33
61906;BME280;47863;55.766;37.672;2023-12-22T06:41:54;97494.94;;;0.37;87.52
61906;BME280;47863;55.766;37.672;2023-12-22T06:44:19;97487.69;;;0.39;87.32
61906;BME280;47863;55.766;37.672;2023-12-22T06:46:45;97491.00;;;0.41;87.79
61906;BME280;47863;55.766;37.672;2023-12-22T06:49:11;97482.94;;;0.43;87.59
61906;BME280;47863;55.766;37.672;2023-12-22T06:51:36;97488.22;;;0.43;87.75
61906;BME280;47863;55.766;37.672;2023-12-22T06:54:03;97481.50;;;0.48;87.49
61906;BME280;47863;55.766;37.672;2023-12-22T06:56:34;97475.44;;;0.48;87.51
61906;BME280;47863;55.766;37.672;2023-12-22T06:59:00;97453.13;;;0.34;87.31
61906;BME280;47863;55.766;37.672;2023-12-22T07:01:31;97498.88;;;0.59;87.11
61906;BME280;47863;55.766;37.672;2023-12-22T07:03:58;97488.84;;;0.63;87.02
61906;BME280;47863;55.766;37.672;2023-12-22T07:06:28;97473.00;;;0.54;86.82
61906;BME280;47863;55.766;37.672;2023-12-22T07:11:44;97514.56;;;0.69;86.48
61906;BME280;47863;55.766;37.672;2023-12-22T07:14:09;97481.63;;;0.65;86.32
61906;BME280;47863;55.766;37.672;2023-12-22T07:16:35;97480.31;;;0.69;86.55
61906;BME280;47863;55.766;37.672;2023-12-22T07:19:02;97477.69;;;0.69;86.10
61906;BME280;47863;55.766;37.672;2023-12-22T07:21:28;97481.63;;;0.65;86.00
61906;BME280;47863;55.766;37.672;2023-12-22T07:23:53;97499.84;;;0.84;85.91
61906;BME280;47863;55.766;37.672;2023-12-22T07:26:19;97479.66;;;0.67;86.08
61906;BME280;47863;55.766;37.672;2023-12-22T07:28:47;97496.56;;;0.82;86.44
61906;BME280;47863;55.766;37.672;2023-12-22T07:31:14;97508.66;;;0.93;85.84
61906;BME280;47863;55.766;37.672;2023-12-22T07:33:40;97472.16;;;0.80;85.42
61906;BME280;47863;55.766;37.672;2023-12-22T07:36:06;97488.00;;;0.88;84.89
61906;BME280;47863;55.766;37.672;2023-12-22T07:38:32;97494.63;;;0.92;85.15
61906;BME280;47863;55.766;37.672;2023-12-22T07:40:58;97496.75;;;0.89;85.11
61906;BME280;47863;55.766;37.672;2023-12-22T07:43:24;97492.47;;;0.88;85.55
61906;BME280;47863;55.766;37.672;2023-12-22T07:45:50;97438.44;;;0.57;84.70
61906;BME280;47863;55.766;37.672;2023-12-22T07:48:17;97459.47;;;0.75;84.87
61906;BME280;47863;55.766;37.672;2023-12-22T07:50:43;97404.88;;;0.33;85.31
61906;BME280;47863;55.766;37.672;2023-12-22T07:53:08;97431.38;;;0.58;84.97
61906;BME280;47863;55.766;37.672;2023-12-22T07:55:35;97458.28;;;0.70;85.14
61906;BME280;47863;55.766;37.672;2023-12-22T07:58:01;97435.63;;;0.59;84.84
61906;BME280;47863;55.766;37.672;2023-12-22T08:00:26;97489.34;;;0.92;84.88
61906;BME280;47863;55.766;37.672;2023-12-22T08:02:53;97465.63;;;0.92;84.80
61906;BME280;47863;55.766;37.672;2023-12-22T08:05:18;97461.78;;;0.78;85.10
61906;BME280;47863;55.766;37.672;2023-12-22T08:07:44;97458.88;;;0.90;85.16
61906;BME280;47863;55.766;37.672;2023-12-22T08:10:10;97462.56;;;1.05;85.33
61906;BME280;47863;55.766;37.672;2023-12-22T08:12:36;97449.53;;;1.04;83.55
61906;BME280;47863;55.766;37.672;2023-12-22T08:15:02;97463.13;;;1.17;82.67
61906;BME280;47863;55.766;37.672;2023-12-22T08:17:30;97451.41;;;1.11;82.87
61906;BME280;47863;55.766;37.672;2023-12-22T08:19:56;97444.31;;;1.20;82.94
61906;BME280;47863;55.766;37.672;2023-12-22T08:22:22;97439.94;;;1.29;83.07
61906;BME280;47863;55.766;37.672;2023-12-22T08:24:49;97439.44;;;1.42;83.17
61906;BME280;47863;55.766;37.672;2023-12-22T08:27:14;97429.09;;;1.48;82.47
61906;BME280;47863;55.766;37.672;2023-12-22T08:29:44;97446.13;;;1.62;82.03
61906;BME280;47863;55.766;37.672;2023-12-22T08:32:09;97434.41;;;1.81;81.07
61906;BME280;47863;55.766;37.672;2023-12-22T08:34:35;97424.34;;;1.93;78.16
61906;BME280;47863;55.766;37.672;2023-12-22T08:37:01;97406.38;;;1.88;79.02
61906;BME280;47863;55.766;37.672;2023-12-22T08:39:26;97416.94;;;1.96;78.97
61906;BME280;47863;55.766;37.672;2023-12-22T08:41:52;97433.63;;;2.13;79.41
61906;BME280;47863;55.766;37.672;2023-12-22T08:44:21;97421.88;;;2.16;78.83
61906;BME280;47863;55.766;37.672;2023-12-22T08:46:46;97427.31;;;2.23;78.62
61906;BME280;47863;55.766;37.672;2023-12-22T08:49:15;97441.69;;;2.28;78.43
61906;BME280;47863;55.766;37.672;2023-12-22T08:51:41;97409.84;;;2.13;78.31
61906;BME280;47863;55.766;37.672;2023-12-22T08:54:09;97409.00;;;2.13;78.14
61906;BME280;47863;55.766;37.672;2023-12-22T08:56:38;97421.06;;;2.32;76.71
61906;BME280;47863;55.766;37.672;2023-12-22T08:59:03;97322.41;;;1.67;77.43
61906;BME280;47863;55.766;37.672;2023-12-22T09:01:30;97422.13;;;2.70;75.62
61906;BME280;47863;55.766;37.672;2023-12-22T09:03:55;97446.38;;;2.82;74.70
61906;BME280;47863;55.766;37.672;2023-12-22T09:06:24;97370.47;;;2.60;74.91
61906;BME280;47863;55.766;37.672;2023-12-22T09:08:50;97409.81;;;3.02;75.31
61906;BME280;47863;55.766;37.672;2023-12-22T09:11:17;97435.06;;;3.13;73.88
61906;BME280;47863;55.766;37.672;2023-12-22T09:13:43;97414.22;;;3.18;73.89
61906;BME280;47863;55.766;37.672;2023-12-22T09:16:09;97413.75;;;3.37;74.24
61906;BME280;47863;55.766;37.672;2023-12-22T09:18:35;97426.88;;;3.62;74.23
61906;BME280;47863;55.766;37.672;2023-12-22T09:21:01;97427.72;;;3.86;74.25
61906;BME280;47863;55.766;37.672;2023-12-22T09:23:28;97402.56;;;3.82;74.08
61906;BME280;47863;55.766;37.672;2023-12-22T09:25:54;97422.19;;;4.33;73.77
61906;BME280;47863;55.766;37.672;2023-12-22T09:28:20;97435.78;;;4.83;73.30
61906;BME280;47863;55.766;37.672;2023-12-22T09:30:45;97402.22;;;4.75;69.62
61906;BME280;47863;55.766;37.672;2023-12-22T09:33:11;97408.97;;;4.48;68.09
61906;BME280;47863;55.766;37.672;2023-12-22T09:35:37;97409.34;;;4.22;69.21
61906;BME280;47863;55.766;37.672;2023-12-22T09:38:07;97404.63;;;4.32;70.69
61906;BME280;47863;55.766;37.672;2023-12-22T09:40:38;97419.28;;;4.43;69.30
61906;BME280;47863;55.766;37.672;2023-12-22T09:43:06;97392.31;;;4.25;70.05
61906;BME280;47863;55.766;37.672;2023-12-22T09:45:32;97348.75;;;4.04;69.41
61906;BME280;47863;55.766;37.672;2023-12-22T09:48:00;97386.38;;;4.37;66.93
61906;BME280;47863;55.766;37.672;2023-12-22T09:50:26;97407.59;;;4.52;66.86
61906;BME280;47863;55.766;37.672;2023-12-22T09:52:52;97379.03;;;4.25;67.36
61906;BME280;47863;55.766;37.672;2023-12-22T09:55:18;97345.53;;;3.94;67.95
61906;BME280;47863;55.766;37.672;2023-12-22T09:57:47;97396.56;;;4.26;68.19
61906;BME280;47863;55.766;37.672;2023-12-22T10:00:14;97346.50;;;3.78;69.38
61906;BME280;47863;55.766;37.672;2023-12-22T10:02:40;97400.50;;;3.92;68.98
61906;BME280;47863;55.766;37.672;2023-12-22T10:05:08;97395.09;;;3.85;67.65
61906;BME280;47863;55.766;37.672;2023-12-22T10:07:35;97382.50;;;3.64;68.57
61906;BME280;47863;55.766;37.672;2023-12-22T10:10:03;97378.09;;;3.56;69.00
61906;BME280;47863;55.766;37.672;2023-12-22T10:12:30;97377.78;;;3.74;69.94
61906;BME280;47863;55.766;37.672;2023-12-22T10:14:57;97371.13;;;3.78;69.00
61906;BME280;47863;55.766;37.672;2023-12-22T10:17:24;97354.84;;;3.67;68.80
61906;BME280;47863;55.766;37.672;2023-12-22T10:19:51;97360.69;;;3.62;69.58
61906;BME280;47863;55.766;37.672;2023-12-22T10:22:17;97348.75;;;3.66;69.79
61906;BME280;47863;55.766;37.672;2023-12-22T10:24:44;97388.69;;;3.80;69.62
61906;BME280;47863;55.766;37.672;2023-12-22T10:27:15;97347.50;;;3.54;68.93
61906;BME280;47863;55.766;37.672;2023-12-22T10:29:51;97374.31;;;3.51;69.67
61906;BME280;47863;55.766;37.672;2023-12-22T10:32:18;97350.66;;;3.26;70.64
61906;BME280;47863;55.766;37.672;2023-12-22T10:34:48;97374.13;;;3.29;70.89
61906;BME280;47863;55.766;37.672;2023-12-22T10:37:16;97366.09;;;3.14;70.56
61906;BME280;47863;55.766;37.672;2023-12-22T10:39:42;97354.53;;;2.76;71.45
61906;BME280;47863;55.766;37.672;2023-12-22T10:42:09;97359.56;;;2.54;72.21
61906;BME280;47863;55.766;37.672;2023-12-22T10:44:35;97371.84;;;2.39;72.98
61906;BME280;47863;55.766;37.672;2023-12-22T10:47:01;97345.97;;;2.18;73.60
61906;BME280;47863;55.766;37.672;2023-12-22T10:49:26;97361.16;;;2.16;74.01
61906;BME280;47863;55.766;37.672;2023-12-22T10:51:52;97357.69;;;1.99;74.16
61906;BME280;47863;55.766;37.672;2023-12-22T10:54:18;97354.75;;;1.86;73.74
61906;BME280;47863;55.766;37.672;2023-12-22T10:56:44;97331.16;;;1.51;73.80
61906;BME280;47863;55.766;37.672;2023-12-22T10:59:10;97339.06;;;1.59;74.35
61906;BME280;47863;55.766;37.672;2023-12-22T11:01:36;97330.31;;;1.51;75.24
61906;BME280;47863;55.766;37.672;2023-12-22T11:04:07;97309.84;;;1.20;75.12
61906;BME280;47863;55.766;37.672;2023-12-22T11:06:35;97347.78;;;1.35;75.77
61906;BME280;47863;55.766;37.672;2023-12-22T11:09:06;97308.00;;;1.12;75.90
61906;BME280;47863;55.766;37.672;2023-12-22T11:11:37;97343.81;;;1.23;76.18
61906;BME280;47863;55.766;37.672;2023-12-22T11:14:04;97337.88;;;1.13;76.26
61906;BME280;47863;55.766;37.672;2023-12-22T11:16:32;97341.97;;;1.15;76.71
61906;BME280;47863;55.766;37.672;2023-12-22T11:19:00;97341.81;;;1.09;77.12
61906;BME280;47863;55.766;37.672;2023-12-22T11:21:26;97327.63;;;1.02;77.17
61906;BME280;47863;55.766;37.672;2023-12-22T11:23:53;97333.06;;;1.08;77.48
61906;BME280;47863;55.766;37.672;2023-12-22T11:26:20;97332.22;;;0.99;77.43
61906;BME280;47863;55.766;37.672;2023-12-22T11:28:47;97348.88;;;1.08;76.85
61906;BME280;47863;55.766;37.672;2023-12-22T11:31:13;97337.16;;;1.03;77.30
61906;BME280;47863;55.766;37.672;2023-12-22T11:33:58;97340.63;;;0.95;77.74
61906;BME280;47863;55.766;37.672;2023-12-22T11:36:25;97355.94;;;0.99;77.54
61906;BME280;47863;55.766;37.672;2023-12-22T11:38:51;97333.84;;;0.92;78.01
61906;BME280;47863;55.766;37.672;2023-12-22T11:41:18;97328.91;;;0.89;77.70
61906;BME280;47863;55.766;37.672;2023-12-22T11:43:45;97315.13;;;0.61;78.23
61906;BME280;47863;55.766;37.672;2023-12-22T11:46:12;97285.66;;;0.57;78.40
61906;BME280;47863;55.766;37.672;2023-12-22T11:48:37;97257.91;;;0.37;78.58
61906;BME280;47863;55.766;37.672;2023-12-22T11:51:13;97320.38;;;0.61;78.94
61906;BME280;47863;55.766;37.672;2023-12-22T11:53:42;97288.44;;;0.48;79.14
61906;BME280;47863;55.766;37.672;2023-12-22T11:56:09;97326.16;;;0.65;79.25
61906;BME280;47863;55.766;37.672;2023-12-22T12:01:10;97332.75;;;0.61;79.43
61906;BME280;47863;55.766;37.672;2023-12-22T12:03:40;97330.06;;;0.52;79.48
61906;BME280;47863;55.766;37.672;2023-12-22T12:08:57;97311.84;;;0.25;79.71
61906;BME280;47863;55.766;37.672;2023-12-22T12:11:24;97346.13;;;0.33;80.04
61906;BME280;47863;55.766;37.672;2023-12-22T12:14:10;97308.84;;;0.19;80.24
61906;BME280;47863;55.766;37.672;2023-12-22T12:16:40;97334.25;;;0.29;80.78
61906;BME280;47863;55.766;37.672;2023-12-22T12:19:09;97330.75;;;0.20;80.92
61906;BME280;47863;55.766;37.672;2023-12-22T12:21:35;97310.72;;;0.01;80.69
61906;BME280;47863;55.766;37.672;2023-12-22T12:24:00;97338.81;;;0.18;80.80
61906;BME280;47863;55.766;37.672;2023-12-22T12:26:27;97185.59;;;-0.80;80.92
61906;BME280;47863;55.766;37.672;2023-12-22T12:28:55;97302.00;;;0.01;80.99
61906;BME280;47863;55.766;37.672;2023-12-22T12:31:35;97337.25;;;0.08;81.67
61906;BME280;47863;55.766;37.672;2023-12-22T12:34:01;97307.28;;;0.01;81.39
61906;BME280;47863;55.766;37.672;2023-12-22T12:36:27;97287.00;;;-0.07;81.81
61906;BME280;47863;55.766;37.672;2023-12-22T12:39:08;97303.03;;;0.08;81.48
61906;BME280;47863;55.766;37.672;2023-12-22T12:41:40;97293.22;;;-0.08;81.72
61906;BME280;47863;55.766;37.672;2023-12-22T12:44:06;97302.00;;;0.01;82.08
61906;BME280;47863;55.766;37.672;2023-12-22T12:46:37;97289.00;;;-0.01;82.25
61906;BME280;47863;55.766;37.672;2023-12-22T12:49:10;97315.72;;;0.12;82.37
61906;BME280;47863;55.766;37.672;2023-12-22T12:51:49;97273.50;;;-0.04;82.38
61906;BME280;47863;55.766;37.672;2023-12-22T12:54:15;97284.25;;;0.03;82.46
61906;BME280;47863;55.766;37.672;2023-12-22T12:56:42;97286.06;;;0.02;82.48
61906;BME280;47863;55.766;37.672;2023-12-22T12:59:09;97284.94;;;0.05;82.93
61906;BME280;47863;55.766;37.672;2023-12-22T13:01:42;97285.94;;;0.12;82.64
61906;BME280;47863;55.766;37.672;2023-12-22T13:04:08;97300.28;;;0.17;83.04
61906;BME280;47863;55.766;37.672;2023-12-22T13:06:34;97228.69;;;-0.21;82.73